createdAt,value
2022-10-08T00:00:48.963Z,84.33
2022-10-08T00:01:48.977Z,84.33
2022-10-08T00:02:49.463Z,84.33
2022-10-08T00:03:48.975Z,84.42
2022-10-08T00:04:48.881Z,84.33
2022-10-08T00:05:48.858Z,84.42
2022-10-08T00:06:48.853Z,84.22
2022-10-08T00:07:49.051Z,84.22
2022-10-08T00:08:48.830Z,84.12
2022-10-08T00:09:48.814Z,84.22
2022-10-08T00:10:48.799Z,84.08
2022-10-08T00:11:49.112Z,83.98
2022-10-08T00:12:49.121Z,83.98
2022-10-08T00:13:48.761Z,83.87
2022-10-08T00:14:48.765Z,83.87
2022-10-08T00:15:48.791Z,83.87
2022-10-08T00:16:48.982Z,83.78
2022-10-08T00:17:48.713Z,83.87
2022-10-08T00:18:48.716Z,83.78
2022-10-08T00:19:48.926Z,83.78
2022-10-08T00:20:48.682Z,83.67
2022-10-08T00:21:48.664Z,83.67
2022-10-08T00:22:48.972Z,83.67
2022-10-08T00:23:48.665Z,83.67
2022-10-08T00:24:48.951Z,83.57
2022-10-08T00:25:48.643Z,83.57
2022-10-08T00:26:48.641Z,83.57
2022-10-08T00:27:48.606Z,83.57
2022-10-08T00:28:48.600Z,83.47
2022-10-08T00:29:48.878Z,83.47
2022-10-08T00:30:49.297Z,83.47
2022-10-08T00:31:48.596Z,83.47
2022-10-08T00:32:49.387Z,83.57
2022-10-08T00:33:48.576Z,83.57
2022-10-08T00:34:48.537Z,83.57
2022-10-08T00:35:48.815Z,83.57
2022-10-08T00:36:48.806Z,83.57
2022-10-08T00:37:48.499Z,83.57
2022-10-08T00:38:48.478Z,83.57
2022-10-08T00:39:48.670Z,83.57
2022-10-08T00:40:48.467Z,83.57
2022-10-08T00:41:48.439Z,83.47
2022-10-08T00:42:48.838Z,83.47
2022-10-08T00:43:48.430Z,83.47
2022-10-08T00:44:48.651Z,83.37
2022-10-08T00:45:48.464Z,83.37
2022-10-08T00:46:48.388Z,83.37
2022-10-08T00:47:48.384Z,83.26
2022-10-08T00:48:48.376Z,83.26
2022-10-08T00:49:48.373Z,83.16
2022-10-08T00:50:48.349Z,83.12
2022-10-08T00:51:48.335Z,83.16
2022-10-08T00:52:48.794Z,83.02
2022-10-08T00:53:48.314Z,83.02
2022-10-08T00:54:48.291Z,83.02
2022-10-08T00:55:48.420Z,82.92
2022-10-08T00:56:48.269Z,82.92
2022-10-08T00:57:48.551Z,82.92
2022-10-08T00:58:48.262Z,82.82
2022-10-08T00:59:48.231Z,82.71
2022-10-08T01:00:48.314Z,82.82
2022-10-08T01:01:48.263Z,82.71
2022-10-08T01:02:48.992Z,82.61
2022-10-08T01:03:48.195Z,82.51
2022-10-08T01:04:48.182Z,82.51
2022-10-08T01:05:48.179Z,82.51
2022-10-08T01:06:48.156Z,82.51
2022-10-08T01:07:48.405Z,82.51
2022-10-08T01:08:48.134Z,82.51
2022-10-08T01:09:48.128Z,82.61
2022-10-08T01:10:48.125Z,82.61
2022-10-08T01:11:48.096Z,82.51
2022-10-08T01:12:48.765Z,82.51
2022-10-08T01:13:48.088Z,82.51
2022-10-08T01:14:48.077Z,82.51
2022-10-08T01:15:48.368Z,82.61
2022-10-08T01:16:48.082Z,82.71
2022-10-08T01:17:48.218Z,82.61
2022-10-08T01:18:48.006Z,82.71
2022-10-08T01:19:48.013Z,82.71
2022-10-08T01:20:48.000Z,82.71
2022-10-08T01:21:48.007Z,82.82
2022-10-08T01:22:48.466Z,82.82
2022-10-08T01:23:47.947Z,82.82
2022-10-08T01:24:47.938Z,82.82
2022-10-08T01:25:47.927Z,82.71
2022-10-08T01:26:47.931Z,82.71
2022-10-08T01:27:48.139Z,82.61
2022-10-08T01:28:47.914Z,82.51
2022-10-08T01:29:47.892Z,82.51
2022-10-08T01:30:47.869Z,82.47
2022-10-08T01:31:47.910Z,82.41
2022-10-08T01:32:48.579Z,82.27
2022-10-08T01:33:47.853Z,82.17
2022-10-08T01:34:47.827Z,82.17
2022-10-08T01:35:47.832Z,82.07
2022-10-08T01:36:47.814Z,81.96
2022-10-08T01:37:47.824Z,81.76
2022-10-08T01:38:47.783Z,81.76
2022-10-08T01:39:47.784Z,81.76
2022-10-08T01:40:47.784Z,81.76
2022-10-08T01:41:47.769Z,81.66
2022-10-08T01:42:48.127Z,81.66
2022-10-08T01:43:47.722Z,81.66
2022-10-08T01:44:47.719Z,81.66
2022-10-08T01:45:47.783Z,81.66
2022-10-08T01:46:47.705Z,81.66
2022-10-08T01:47:47.972Z,81.56
2022-10-08T01:48:47.678Z,81.52
2022-10-08T01:49:47.651Z,81.56
2022-10-08T01:50:47.656Z,81.56
2022-10-08T01:51:47.638Z,81.66
2022-10-08T01:52:48.305Z,81.66
2022-10-08T01:53:47.617Z,81.66
2022-10-08T01:54:47.905Z,81.66
2022-10-08T01:55:47.597Z,81.66
2022-10-08T01:56:47.587Z,81.76
2022-10-08T01:57:47.857Z,81.62
2022-10-08T01:58:47.561Z,81.62
2022-10-08T01:59:47.546Z,81.62
2022-10-08T02:00:47.617Z,81.72
2022-10-08T02:01:47.568Z,81.62
2022-10-08T02:02:47.926Z,81.62
2022-10-08T02:03:47.488Z,81.62
2022-10-08T02:04:47.479Z,81.62
2022-10-08T02:05:47.465Z,81.72
2022-10-08T02:06:47.477Z,81.72
2022-10-08T02:07:47.648Z,81.72
2022-10-08T02:08:47.429Z,81.62
2022-10-08T02:09:47.968Z,81.52
2022-10-08T02:10:47.660Z,81.52
2022-10-08T02:11:47.409Z,81.41
2022-10-08T02:12:47.673Z,81.52
2022-10-08T02:13:47.373Z,81.41
2022-10-08T02:14:47.360Z,81.17
2022-10-08T02:15:47.663Z,81.07
2022-10-08T02:16:47.419Z,81.27
2022-10-08T02:17:47.321Z,81.17
2022-10-08T02:18:47.311Z,80.97
2022-10-08T02:19:47.314Z,80.97
2022-10-08T02:20:47.514Z,80.97
2022-10-08T02:21:47.280Z,80.87
2022-10-08T02:22:47.520Z,80.87
2022-10-08T02:23:47.253Z,80.87
2022-10-08T02:24:47.475Z,80.87
2022-10-08T02:25:47.231Z,80.97
2022-10-08T02:26:47.223Z,81.07
2022-10-08T02:27:47.203Z,81.07
2022-10-08T02:28:47.213Z,81.17
2022-10-08T02:29:47.197Z,81.27
2022-10-08T02:30:47.364Z,81.27
2022-10-08T02:31:47.201Z,81.38
2022-10-08T02:32:47.510Z,81.48
2022-10-08T02:33:47.148Z,81.48
2022-10-08T02:34:47.437Z,81.48
2022-10-08T02:35:47.128Z,81.58
2022-10-08T02:36:47.094Z,81.48
2022-10-08T02:37:47.394Z,81.48
2022-10-08T02:38:47.091Z,81.27
2022-10-08T02:39:47.072Z,81.27
2022-10-08T02:40:47.070Z,81.27
2022-10-08T02:41:47.360Z,81.38
2022-10-08T02:42:47.348Z,81.38
2022-10-08T02:43:47.030Z,81.38
2022-10-08T02:44:47.018Z,81.44
2022-10-08T02:45:47.334Z,81.38
2022-10-08T02:46:46.991Z,81.38
2022-10-08T02:47:46.968Z,81.44
2022-10-08T02:48:46.958Z,81.54
2022-10-08T02:49:46.961Z,81.54
2022-10-08T02:50:47.260Z,81.65
2022-10-08T02:51:46.933Z,81.65
2022-10-08T02:52:47.085Z,81.65
2022-10-08T02:53:46.898Z,81.74
2022-10-08T02:54:46.880Z,81.85
2022-10-08T02:55:47.110Z,81.85
2022-10-08T02:56:46.873Z,81.95
2022-10-08T02:57:46.851Z,81.95
2022-10-08T02:58:46.830Z,81.95
2022-10-08T02:59:46.820Z,82.05
2022-10-08T03:00:47.172Z,82.05
2022-10-08T03:01:46.815Z,82.15
2022-10-08T03:02:47.035Z,82.15
2022-10-08T03:03:46.772Z,82.15
2022-10-08T03:04:46.761Z,82.15
2022-10-08T03:05:46.763Z,82.15
2022-10-08T03:06:46.933Z,82.12
2022-10-08T03:07:46.728Z,82.01
2022-10-08T03:08:46.713Z,82.01
2022-10-08T03:09:46.717Z,82.01
2022-10-08T03:10:46.683Z,82.01
2022-10-08T03:11:46.894Z,82.01
2022-10-08T03:12:47.189Z,82.12
2022-10-08T03:13:46.657Z,82.12
2022-10-08T03:14:46.635Z,82.01
2022-10-08T03:15:46.633Z,81.91
2022-10-08T03:16:46.672Z,82.01
2022-10-08T03:17:46.906Z,81.81
2022-10-08T03:18:46.796Z,81.91
2022-10-08T03:19:46.587Z,81.81
2022-10-08T03:20:46.567Z,81.81
2022-10-08T03:21:46.556Z,81.81
2022-10-08T03:22:46.870Z,82.01
2022-10-08T03:23:46.867Z,81.91
2022-10-08T03:24:46.541Z,81.91
2022-10-08T03:25:46.509Z,82.01
2022-10-08T03:26:46.497Z,81.91
2022-10-08T03:27:46.488Z,81.81
2022-10-08T03:28:46.833Z,81.91
2022-10-08T03:29:46.467Z,81.91
2022-10-08T03:30:46.482Z,81.91
2022-10-08T03:31:46.752Z,82.01
2022-10-08T03:32:46.644Z,82.12
2022-10-08T03:33:46.419Z,82.42
2022-10-08T03:34:46.430Z,82.52
2022-10-08T03:35:46.390Z,82.82
2022-10-08T03:36:46.390Z,83.23
2022-10-08T03:37:46.370Z,83.37
2022-10-08T03:38:46.364Z,83.54
2022-10-08T03:39:46.749Z,83.74
2022-10-08T03:40:46.331Z,83.84
2022-10-08T03:41:46.333Z,84.09
2022-10-08T03:42:46.559Z,84.50
2022-10-08T03:43:46.631Z,84.80
2022-10-08T03:44:46.283Z,85.31
2022-10-08T03:45:46.311Z,86.02
2022-10-08T03:46:46.261Z,86.43
2022-10-08T03:47:46.255Z,86.63
2022-10-08T03:48:46.232Z,87.14
2022-10-08T03:49:46.224Z,87.55
2022-10-08T03:50:46.537Z,88.26
2022-10-08T03:51:46.216Z,88.87
2022-10-08T03:52:46.448Z,89.53
2022-10-08T03:53:46.474Z,90.03
2022-10-08T03:54:46.165Z,90.64
2022-10-08T03:55:46.405Z,91.26
2022-10-08T03:56:46.158Z,91.71
2022-10-08T03:57:46.126Z,92.01
2022-10-08T03:58:46.340Z,92.42
2022-10-08T03:59:46.095Z,92.63
2022-10-08T04:00:46.100Z,92.77
2022-10-08T04:01:46.449Z,92.87
2022-10-08T04:02:46.473Z,93.07
2022-10-08T04:03:46.070Z,93.07
2022-10-08T04:04:46.305Z,93.38
2022-10-08T04:05:46.041Z,93.69
2022-10-08T04:06:46.332Z,93.59
2022-10-08T04:07:46.019Z,93.84
2022-10-08T04:08:46.002Z,93.93
2022-10-08T04:09:45.978Z,94.24
2022-10-08T04:10:46.258Z,94.24
2022-10-08T04:11:45.958Z,94.14
2022-10-08T04:12:46.262Z,94.24
2022-10-08T04:13:45.953Z,94.04
2022-10-08T04:14:45.939Z,94.04
2022-10-08T04:15:46.201Z,93.93
2022-10-08T04:16:45.922Z,93.84
2022-10-08T04:17:45.890Z,93.84
2022-10-08T04:18:45.889Z,93.93
2022-10-08T04:19:45.879Z,93.93
2022-10-08T04:20:46.161Z,93.93
2022-10-08T04:21:46.175Z,93.73
2022-10-08T04:22:46.073Z,93.84
2022-10-08T04:23:45.837Z,94.04
2022-10-08T04:24:46.136Z,94.14
2022-10-08T04:25:45.816Z,94.34
2022-10-08T04:26:45.807Z,94.55
2022-10-08T04:27:45.793Z,94.85
2022-10-08T04:28:45.800Z,95.06
2022-10-08T04:29:45.766Z,95.26
2022-10-08T04:30:45.807Z,95.51
2022-10-08T04:31:45.982Z,95.61
2022-10-08T04:32:46.191Z,95.61
2022-10-08T04:33:45.705Z,95.81
2022-10-08T04:34:45.693Z,95.92
2022-10-08T04:35:45.697Z,95.92
2022-10-08T04:36:45.889Z,96.22
2022-10-08T04:37:45.703Z,96.33
2022-10-08T04:38:45.660Z,96.43
2022-10-08T04:39:45.885Z,96.53
2022-10-08T04:40:45.643Z,96.63
2022-10-08T04:41:45.936Z,96.73
2022-10-08T04:42:45.931Z,96.63
2022-10-08T04:43:45.882Z,96.63
2022-10-08T04:44:45.592Z,96.63
2022-10-08T04:45:45.569Z,96.73
2022-10-08T04:46:45.618Z,96.73
2022-10-08T04:47:45.548Z,96.73
2022-10-08T04:48:45.863Z,96.63
2022-10-08T04:49:45.518Z,96.73
2022-10-08T04:50:45.507Z,96.84
2022-10-08T04:51:45.496Z,96.73
2022-10-08T04:52:45.800Z,96.73
2022-10-08T04:53:45.494Z,96.63
2022-10-08T04:54:45.708Z,96.73
2022-10-08T04:55:45.457Z,96.73
2022-10-08T04:56:45.442Z,96.84
2022-10-08T04:57:45.446Z,96.84
2022-10-08T04:58:45.410Z,96.84
2022-10-08T05:00:13.204Z,96.84
2022-10-08T05:00:46.403Z,96.73
2022-10-08T05:01:45.497Z,96.63
2022-10-08T05:02:45.789Z,96.53
2022-10-08T05:03:45.373Z,96.53
2022-10-08T05:04:45.841Z,96.63
2022-10-08T05:05:45.358Z,96.73
2022-10-08T05:06:45.336Z,96.84
2022-10-08T05:07:45.326Z,96.84
2022-10-08T05:08:45.517Z,96.84
2022-10-08T05:09:45.305Z,96.94
2022-10-08T05:10:45.297Z,96.94
2022-10-08T05:11:45.285Z,96.94
2022-10-08T05:12:45.631Z,96.84
2022-10-08T05:13:45.257Z,96.84
2022-10-08T05:14:45.547Z,96.73
2022-10-08T05:15:45.258Z,96.84
2022-10-08T05:16:45.206Z,96.73
2022-10-08T05:17:45.217Z,96.73
2022-10-08T05:18:45.485Z,96.73
2022-10-08T05:19:45.197Z,96.69
2022-10-08T05:20:45.171Z,96.59
2022-10-08T05:21:45.159Z,96.59
2022-10-08T05:22:45.406Z,96.59
2022-10-08T05:23:45.408Z,96.59
2022-10-08T05:24:45.130Z,96.59
2022-10-08T05:25:45.096Z,96.48
2022-10-08T05:27:00.390Z,96.48
2022-10-08T05:27:46.099Z,96.48
2022-10-08T05:28:45.119Z,96.28
2022-10-08T05:29:45.320Z,96.22
2022-10-08T05:30:45.075Z,96.22
2022-10-08T05:31:45.052Z,96.33
2022-10-08T05:32:45.377Z,96.28
2022-10-08T05:33:45.032Z,96.33
2022-10-08T05:34:45.319Z,96.33
2022-10-08T05:35:45.003Z,96.43
2022-10-08T05:36:44.970Z,96.43
2022-10-08T05:37:44.984Z,96.53
2022-10-08T05:38:44.963Z,96.63
2022-10-08T05:39:44.942Z,96.53
2022-10-08T05:40:45.184Z,96.53
2022-10-08T05:41:44.920Z,96.53
2022-10-08T05:42:45.174Z,96.63
2022-10-08T05:43:44.904Z,96.63
2022-10-08T05:44:45.608Z,96.63
2022-10-08T05:45:45.185Z,96.73
2022-10-08T05:46:44.918Z,96.73
2022-10-08T05:47:44.842Z,96.84
2022-10-08T05:48:44.845Z,96.84
2022-10-08T05:49:44.824Z,96.84
2022-10-08T05:50:45.112Z,96.84
2022-10-08T05:51:44.803Z,96.94
2022-10-08T05:52:45.123Z,96.94
2022-10-08T05:53:44.773Z,96.94
2022-10-08T05:54:45.067Z,96.84
2022-10-08T05:55:44.766Z,96.94
2022-10-08T05:56:45.031Z,96.94
2022-10-08T05:57:44.725Z,96.94
2022-10-08T05:58:44.742Z,96.84
2022-10-08T05:59:44.719Z,96.73
2022-10-08T06:00:44.719Z,96.73
2022-10-08T06:01:45.009Z,96.73
2022-10-08T06:02:44.950Z,96.63
2022-10-08T06:03:44.678Z,96.43
2022-10-08T06:04:44.686Z,96.43
2022-10-08T06:05:44.827Z,96.43
2022-10-08T06:06:44.638Z,96.43
2022-10-08T06:07:44.615Z,96.43
2022-10-08T06:08:44.617Z,96.43
2022-10-08T06:09:44.600Z,96.43
2022-10-08T06:10:44.576Z,96.53
2022-10-08T06:11:44.580Z,96.53
2022-10-08T06:12:44.852Z,96.53
2022-10-08T06:13:44.551Z,96.63
2022-10-08T06:14:44.739Z,96.63
2022-10-08T06:15:44.531Z,96.63
2022-10-08T06:16:44.509Z,96.73
2022-10-08T06:17:44.507Z,96.73
2022-10-08T06:18:44.501Z,96.73
2022-10-08T06:19:44.613Z,96.59
2022-10-08T06:20:44.473Z,96.59
2022-10-08T06:21:44.448Z,96.43
2022-10-08T06:22:44.842Z,96.22
2022-10-08T06:23:44.451Z,96.12
2022-10-08T06:24:44.432Z,96.12
2022-10-08T06:25:44.423Z,96.22
2022-10-08T06:26:44.615Z,96.33
2022-10-08T06:27:44.395Z,96.28
2022-10-08T06:28:44.389Z,96.38
2022-10-08T06:29:44.375Z,96.28
2022-10-08T06:30:44.353Z,96.28
2022-10-08T06:32:02.822Z,96.28
2022-10-08T06:32:44.568Z,96.28
2022-10-08T06:33:44.325Z,96.22
2022-10-08T06:34:44.292Z,96.33
2022-10-08T06:35:44.283Z,96.53
2022-10-08T06:36:44.504Z,96.63
2022-10-08T06:37:44.933Z,96.63
2022-10-08T06:38:44.279Z,96.73
2022-10-08T06:39:48.283Z,96.73
2022-10-08T06:40:44.256Z,96.84
2022-10-08T06:41:44.230Z,96.84
2022-10-08T06:42:44.809Z,96.94
2022-10-08T06:43:44.194Z,97.04
2022-10-08T06:44:44.198Z,97.14
2022-10-08T06:45:44.169Z,97.24
2022-10-08T06:46:44.560Z,97.24
2022-10-08T06:47:44.157Z,97.04
2022-10-08T06:48:44.159Z,96.94
2022-10-08T06:49:44.127Z,96.94
2022-10-08T06:50:44.107Z,97.04
2022-10-08T06:51:44.411Z,97.04
2022-10-08T06:52:44.438Z,97.14
2022-10-08T06:53:44.342Z,97.24
2022-10-08T06:54:44.083Z,97.20
2022-10-08T06:55:44.057Z,97.09
2022-10-08T06:56:44.048Z,97.09
2022-10-08T06:57:50.689Z,96.89
2022-10-08T06:58:44.332Z,96.79
2022-10-08T06:59:44.000Z,96.94
2022-10-08T07:00:44.052Z,96.89
2022-10-08T07:01:44.395Z,97.00
2022-10-08T07:02:44.193Z,97.09
2022-10-08T07:03:43.973Z,97.00
2022-10-08T07:04:43.939Z,97.00
2022-10-08T07:05:43.943Z,97.00
2022-10-08T07:06:44.200Z,97.00
2022-10-08T07:07:43.911Z,97.00
2022-10-08T07:08:43.913Z,96.94
2022-10-08T07:09:43.881Z,96.89
2022-10-08T07:10:43.884Z,97.00
2022-10-08T07:11:44.186Z,97.20
2022-10-08T07:12:43.879Z,97.20
2022-10-08T07:13:43.846Z,97.30
2022-10-08T07:14:44.141Z,97.40
2022-10-08T07:15:43.812Z,97.30
2022-10-08T07:16:44.155Z,97.30
2022-10-08T07:17:43.783Z,97.40
2022-10-08T07:18:43.986Z,97.40
2022-10-08T07:19:43.782Z,97.40
2022-10-08T07:20:43.755Z,97.30
2022-10-08T07:21:43.744Z,97.30
2022-10-08T07:22:44.019Z,97.30
2022-10-08T07:23:43.750Z,97.30
2022-10-08T07:24:43.726Z,97.30
2022-10-08T07:25:43.710Z,97.30
2022-10-08T07:26:43.997Z,97.30
2022-10-08T07:27:45.074Z,97.30
2022-10-08T07:28:43.939Z,97.30
2022-10-08T07:29:43.646Z,97.20
2022-10-08T07:30:43.655Z,97.30
2022-10-08T07:31:43.705Z,97.30
2022-10-08T07:32:44.241Z,97.16
2022-10-08T07:33:43.597Z,97.16
2022-10-08T07:34:43.598Z,97.25
2022-10-08T07:35:43.593Z,97.25
2022-10-08T07:36:43.914Z,97.36
2022-10-08T07:37:43.833Z,97.36
2022-10-08T07:38:43.561Z,97.46
2022-10-08T07:39:43.730Z,97.46
2022-10-08T07:40:43.531Z,97.46
2022-10-08T07:41:43.523Z,97.56
2022-10-08T07:42:43.534Z,97.41
2022-10-08T07:43:43.745Z,97.25
2022-10-08T07:44:43.483Z,97.16
2022-10-08T07:45:43.811Z,97.05
2022-10-08T07:46:43.468Z,97.16
2022-10-08T07:47:43.430Z,97.11
2022-10-08T07:48:43.433Z,97.21
2022-10-08T07:49:43.423Z,97.11
2022-10-08T07:50:43.605Z,97.00
2022-10-08T07:51:43.396Z,96.80
2022-10-08T07:52:43.384Z,96.91
2022-10-08T07:53:43.376Z,96.60
2022-10-08T07:54:43.383Z,96.30
2022-10-08T07:55:43.546Z,96.39
2022-10-08T07:56:43.343Z,96.50
2022-10-08T07:57:43.311Z,96.60
2022-10-08T07:58:43.303Z,96.50
2022-10-08T07:59:43.304Z,96.30
2022-10-08T08:00:43.352Z,96.19
2022-10-08T08:01:43.532Z,96.09
2022-10-08T08:02:43.260Z,96.09
2022-10-08T08:03:43.250Z,96.09
2022-10-08T08:04:43.226Z,96.30
2022-10-08T08:05:43.217Z,96.09
2022-10-08T08:06:43.461Z,95.98
2022-10-08T08:07:43.185Z,95.98
2022-10-08T08:08:43.180Z,95.98
2022-10-08T08:09:43.180Z,95.89
2022-10-08T08:10:43.157Z,95.89
2022-10-08T08:11:43.375Z,95.94
2022-10-08T08:12:43.149Z,96.04
2022-10-08T08:13:43.120Z,96.04
2022-10-08T08:14:43.112Z,96.04
2022-10-08T08:15:43.097Z,95.94
2022-10-08T08:16:43.444Z,95.84
2022-10-08T08:17:43.101Z,95.64
2022-10-08T08:18:43.058Z,95.74
2022-10-08T08:19:43.076Z,95.84
2022-10-08T08:20:43.054Z,95.84
2022-10-08T08:21:43.072Z,95.23
2022-10-08T08:22:43.063Z,94.82
2022-10-08T08:23:43.018Z,94.62
2022-10-08T08:24:42.989Z,94.72
2022-10-08T08:25:43.008Z,94.92
2022-10-08T08:26:42.986Z,94.78
2022-10-08T08:27:42.953Z,94.37
2022-10-08T08:28:43.010Z,94.21
2022-10-08T08:29:42.965Z,94.37
2022-10-08T08:30:42.998Z,94.37
2022-10-08T08:31:43.336Z,94.07
2022-10-08T08:32:42.911Z,94.11
2022-10-08T08:33:42.984Z,94.07
2022-10-08T08:34:42.926Z,93.86
2022-10-08T08:35:43.272Z,93.86
2022-10-08T08:36:42.888Z,93.96
2022-10-08T08:37:42.864Z,93.66
2022-10-08T08:38:46.893Z,93.40
2022-10-08T08:39:43.103Z,93.50
2022-10-08T08:40:43.812Z,93.80
2022-10-08T08:41:42.796Z,94.01
2022-10-08T08:42:43.527Z,93.86
2022-10-08T08:43:42.768Z,93.86
2022-10-08T08:44:42.747Z,94.07
2022-10-08T08:45:46.961Z,94.17
2022-10-08T08:46:42.756Z,94.17
2022-10-08T08:47:42.706Z,94.27
2022-10-08T08:48:42.720Z,94.27
2022-10-08T08:49:42.688Z,94.07
2022-10-08T08:50:46.672Z,94.27
2022-10-08T08:51:43.687Z,94.07
2022-10-08T08:52:42.668Z,93.96
2022-10-08T08:53:42.661Z,93.86
2022-10-08T08:54:42.642Z,93.55
2022-10-08T08:55:42.645Z,93.55
2022-10-08T08:56:42.612Z,93.45
2022-10-08T08:57:42.849Z,93.35
2022-10-08T08:58:42.589Z,93.41
2022-10-08T08:59:42.569Z,93.10
2022-10-08T09:00:42.572Z,92.49
2022-10-08T09:01:42.551Z,92.60
2022-10-08T09:02:42.574Z,92.70
2022-10-08T09:03:42.520Z,92.70
2022-10-08T09:04:45.221Z,92.49
2022-10-08T09:05:42.597Z,92.09
2022-10-08T09:06:42.502Z,91.88
2022-10-08T09:07:42.732Z,91.93
2022-10-08T09:08:42.660Z,92.23
2022-10-08T09:09:42.465Z,92.54
2022-10-08T09:10:42.456Z,92.40
2022-10-08T09:11:42.436Z,92.19
2022-10-08T09:12:42.744Z,92.19
2022-10-08T09:13:42.417Z,92.29
2022-10-08T09:14:42.716Z,92.40
2022-10-08T09:15:42.404Z,91.99
2022-10-08T09:16:42.424Z,92.09
2022-10-08T09:17:42.367Z,91.88
2022-10-08T09:18:42.356Z,92.04
2022-10-08T09:19:42.333Z,91.64
2022-10-08T09:20:42.635Z,91.33
2022-10-08T09:21:42.305Z,91.53
2022-10-08T09:22:42.319Z,91.43
2022-10-08T09:23:42.606Z,90.99
2022-10-08T09:24:42.278Z,90.78
2022-10-08T09:25:42.265Z,90.58
2022-10-08T09:26:42.280Z,90.23
2022-10-08T09:27:42.249Z,89.72
2022-10-08T09:28:42.487Z,88.60
2022-10-08T09:29:42.229Z,88.50
2022-10-08T09:30:42.319Z,89.01
2022-10-08T09:31:42.209Z,88.75
2022-10-08T09:32:42.201Z,89.05
2022-10-08T09:33:42.167Z,89.01
2022-10-08T09:34:42.467Z,87.79
2022-10-08T09:35:42.467Z,87.84
2022-10-08T09:36:42.152Z,88.13
2022-10-08T09:37:42.119Z,87.53
2022-10-08T09:38:42.433Z,87.53
2022-10-08T09:39:42.111Z,87.43
2022-10-08T09:40:42.098Z,86.82
2022-10-08T09:41:42.091Z,86.71
2022-10-08T09:42:42.081Z,86.51
2022-10-08T09:43:42.342Z,86.41
2022-10-08T09:44:42.074Z,86.82
2022-10-08T09:45:42.069Z,86.92
2022-10-08T09:46:42.019Z,87.23
2022-10-08T09:47:42.016Z,87.53
2022-10-08T09:48:42.021Z,87.89
2022-10-08T09:49:42.249Z,87.79
2022-10-08T09:50:41.985Z,87.75
2022-10-08T09:51:41.961Z,86.94
2022-10-08T09:52:41.954Z,84.70
2022-10-08T09:53:41.954Z,84.70
2022-10-08T09:54:42.123Z,85.11
2022-10-08T09:55:41.903Z,85.31
2022-10-08T09:56:41.917Z,85.41
2022-10-08T09:57:43.910Z,85.11
2022-10-08T09:58:41.883Z,85.41
2022-10-08T09:59:41.864Z,85.62
2022-10-08T10:00:42.178Z,85.88
2022-10-08T10:01:41.906Z,86.08
2022-10-08T10:02:42.155Z,85.07
2022-10-08T10:03:41.869Z,85.07
2022-10-08T10:04:41.829Z,85.17
2022-10-08T10:05:41.794Z,84.80
2022-10-08T10:06:41.786Z,85.31
2022-10-08T10:07:42.038Z,85.38
2022-10-08T10:08:41.779Z,85.78
2022-10-08T10:09:41.749Z,85.38
2022-10-08T10:10:41.738Z,85.17
2022-10-08T10:11:41.736Z,84.16
2022-10-08T10:12:41.744Z,83.45
2022-10-08T10:13:41.733Z,83.34
2022-10-08T10:14:41.688Z,83.65
2022-10-08T10:15:41.880Z,83.75
2022-10-08T10:16:41.770Z,83.10
2022-10-08T10:17:41.650Z,83.10
2022-10-08T10:18:41.648Z,81.48
2022-10-08T10:19:41.964Z,81.07
2022-10-08T10:20:56.623Z,80.87
2022-10-08T10:21:41.624Z,80.46
2022-10-08T10:22:41.627Z,79.72
2022-10-08T10:23:41.581Z,78.40
2022-10-08T10:24:41.571Z,78.80
2022-10-08T10:25:41.582Z,79.11
2022-10-08T10:26:41.566Z,78.50
2022-10-08T10:27:41.873Z,77.89
2022-10-08T10:28:41.635Z,78.06
2022-10-08T10:29:41.526Z,77.92
2022-10-08T10:30:41.536Z,77.21
2022-10-08T10:31:41.494Z,76.64
2022-10-08T10:32:41.526Z,77.25
2022-10-08T10:33:41.482Z,77.14
2022-10-08T10:34:48.478Z,77.04
2022-10-08T10:35:41.445Z,76.37
2022-10-08T10:36:41.448Z,76.47
2022-10-08T10:37:41.600Z,77.08
2022-10-08T10:38:43.221Z,77.69
2022-10-08T10:39:41.396Z,77.89
2022-10-08T10:40:41.385Z,78.44
2022-10-08T10:41:41.396Z,77.83
2022-10-08T10:42:41.380Z,77.72
2022-10-08T10:43:41.347Z,78.67
2022-10-08T10:44:41.657Z,78.27
2022-10-08T10:45:41.344Z,78.78
2022-10-08T10:46:41.627Z,79.28
2022-10-08T10:47:41.299Z,79.28
2022-10-08T10:48:41.298Z,79.49
2022-10-08T10:49:41.292Z,78.20
2022-10-08T10:50:41.288Z,78.61
2022-10-08T10:51:41.460Z,78.00
2022-10-08T10:52:41.243Z,78.61
2022-10-08T10:53:41.252Z,78.20
2022-10-08T10:54:41.220Z,78.37
2022-10-08T10:55:41.210Z,77.45
2022-10-08T10:56:41.401Z,76.95
2022-10-08T10:57:41.205Z,76.95
2022-10-08T10:58:41.206Z,77.05
2022-10-08T10:59:41.176Z,76.24
2022-10-08T11:00:41.167Z,76.40
2022-10-08T11:01:41.225Z,76.61
2022-10-08T11:02:41.368Z,76.31
2022-10-08T11:03:41.122Z,73.90
2022-10-08T11:04:41.106Z,73.50
2022-10-08T11:05:41.325Z,73.70
2022-10-08T11:06:41.281Z,73.80
2022-10-08T11:07:41.073Z,73.39
2022-10-08T11:08:41.077Z,73.60
2022-10-08T11:09:41.058Z,73.19
2022-10-08T11:10:41.363Z,72.78
2022-10-08T11:11:41.054Z,73.09
2022-10-08T11:12:41.013Z,73.19
2022-10-08T11:13:41.028Z,72.78
2022-10-08T11:14:40.988Z,72.75
2022-10-08T11:15:41.009Z,72.34
2022-10-08T11:16:40.983Z,72.75
2022-10-08T11:17:40.971Z,72.75
2022-10-08T11:18:41.161Z,72.45
2022-10-08T11:19:40.947Z,72.61
2022-10-08T11:20:41.129Z,72.41
2022-10-08T11:21:40.922Z,71.70
2022-10-08T11:22:40.911Z,70.89
2022-10-08T11:23:40.890Z,70.59
2022-10-08T11:24:40.888Z,71.26
2022-10-08T11:26:10.694Z,69.64
2022-10-08T11:26:41.864Z,68.52
2022-10-08T11:27:40.874Z,68.49
2022-10-08T11:28:40.897Z,68.49
2022-10-08T11:29:40.820Z,68.46
2022-10-08T11:30:41.053Z,67.96
2022-10-08T11:31:40.807Z,67.25
2022-10-08T11:32:40.781Z,67.58
2022-10-08T11:33:40.769Z,67.79
2022-10-08T11:34:40.752Z,66.47
2022-10-08T11:35:40.755Z,66.88
2022-10-08T11:36:40.973Z,65.86
2022-10-08T11:37:40.722Z,65.25
2022-10-08T11:38:40.726Z,66.09
2022-10-08T11:39:40.715Z,66.27
2022-10-08T11:40:40.683Z,66.57
2022-10-08T11:41:40.687Z,66.77
2022-10-08T11:42:43.918Z,66.57
2022-10-08T11:43:41.947Z,65.36
2022-10-08T11:44:40.634Z,65.96
2022-10-08T11:45:40.646Z,66.77
2022-10-08T11:46:40.642Z,66.60
2022-10-08T11:47:40.614Z,65.39
2022-10-08T11:48:40.588Z,65.59
2022-10-08T11:49:40.840Z,65.18
2022-10-08T11:50:40.597Z,65.39
2022-10-08T11:51:40.580Z,65.89
2022-10-08T11:52:40.776Z,65.72
2022-10-08T11:53:40.570Z,66.23
2022-10-08T11:54:40.543Z,66.02
2022-10-08T11:55:40.540Z,66.23
2022-10-08T11:56:40.499Z,66.40
2022-10-08T11:58:06.734Z,65.59
2022-10-08T11:58:41.490Z,64.78
2022-10-08T11:59:40.467Z,65.28
2022-10-08T12:00:40.458Z,65.05
2022-10-08T12:01:40.663Z,64.85
2022-10-08T12:02:40.572Z,64.54
2022-10-08T12:03:40.472Z,64.21
2022-10-08T12:04:40.415Z,64.51
2022-10-08T12:05:40.412Z,64.11
2022-10-08T12:06:40.714Z,64.21
2022-10-08T12:07:40.392Z,64.38
2022-10-08T12:08:40.652Z,63.27
2022-10-08T12:09:40.364Z,62.35
2022-10-08T12:10:40.345Z,62.76
2022-10-08T12:11:40.347Z,63.75
2022-10-08T12:12:40.345Z,63.84
2022-10-08T12:13:40.513Z,63.64
2022-10-08T12:14:40.304Z,62.23
2022-10-08T12:15:40.391Z,62.63
2022-10-08T12:16:40.265Z,62.40
2022-10-08T12:17:40.284Z,61.79
2022-10-08T12:18:40.572Z,61.99
2022-10-08T12:19:40.247Z,62.10
2022-10-08T12:20:40.228Z,62.33
2022-10-08T12:21:40.205Z,62.33
2022-10-08T12:22:40.504Z,62.35
2022-10-08T12:23:40.498Z,62.46
2022-10-08T12:24:40.438Z,62.84
2022-10-08T12:25:40.157Z,62.84
2022-10-08T12:26:40.145Z,62.50
2022-10-08T12:27:40.143Z,61.90
2022-10-08T12:28:40.198Z,62.40
2022-10-08T12:29:40.418Z,62.40
2022-10-08T12:30:40.111Z,61.29
2022-10-08T12:31:40.281Z,61.05
2022-10-08T12:32:40.087Z,61.36
2022-10-08T12:33:40.378Z,61.05
2022-10-08T12:34:40.048Z,60.96
2022-10-08T12:35:40.060Z,60.45
2022-10-08T12:36:40.243Z,60.75
2022-10-08T12:37:40.026Z,60.75
2022-10-08T12:38:40.014Z,60.75
2022-10-08T12:39:40.027Z,60.75
2022-10-08T12:40:39.993Z,60.96
2022-10-08T12:41:39.972Z,60.85
2022-10-08T12:42:39.964Z,61.25
2022-10-08T12:43:39.964Z,61.96
2022-10-08T12:44:40.143Z,62.10
2022-10-08T12:45:39.937Z,62.67
2022-10-08T12:46:39.999Z,62.16
2022-10-08T12:47:39.893Z,61.49
2022-10-08T12:48:40.203Z,60.38
2022-10-08T12:49:40.155Z,60.68
2022-10-08T12:50:39.877Z,60.35
2022-10-08T12:51:40.106Z,59.74
2022-10-08T12:52:39.834Z,58.33